Time;durP1;ratioP1;P1;durP2;ratioP2;P2;SDS_P1;SDS_P2;PMS_P1;PMS_P2;Temp;Humidity;BMP_temperature;BMP_pressure;BME280_temperature;BME280_humidity;BME280_pressure;Samples;Min_cycle;Max_cycle;Signal;HPM_P1;HPM_P2
2022/02/22 00:01:33;;;;;;;5.97;1.40;;;4.00;99.90;;;;;;5050275;28;20071;-83
2022/02/22 00:03:59;;;;;;;6.40;2.10;;;4.00;99.90;;;;;;5049876;28;20036;-83
2022/02/22 00:06:24;;;;;;;4.97;1.87;;;3.80;99.90;;;;;;5050115;28;20083;-83
2022/02/22 00:08:50;;;;;;;6.90;2.40;;;3.80;99.90;;;;;;5049696;28;20094;-83
2022/02/22 00:11:15;;;;;;;5.33;1.90;;;3.80;99.90;;;;;;5050222;28;20027;-84
2022/02/22 00:13:41;;;;;;;4.20;1.63;;;3.70;99.90;;;;;;5050108;28;20029;-82
2022/02/22 00:16:07;;;;;;;4.30;1.40;;;3.60;99.90;;;;;;5051251;28;20057;-82
2022/02/22 00:18:33;;;;;;;5.43;1.50;;;3.60;99.90;;;;;;5050424;28;20806;-81
2022/02/22 00:20:59;;;;;;;4.57;1.50;;;3.50;99.90;;;;;;5048884;28;20825;-84
2022/02/22 00:23:24;;;;;;;4.33;1.40;;;3.50;99.90;;;;;;5048458;28;20025;-82
2022/02/22 00:25:50;;;;;;;4.70;1.30;;;3.40;99.90;;;;;;5050150;28;20033;-82
2022/02/22 00:28:19;;;;;;;3.90;1.47;;;3.30;99.90;;;;;;5049795;28;20029;-82
2022/02/22 00:30:48;;;;;;;5.33;1.50;;;3.20;99.90;;;;;;5050158;28;20087;-83
2022/02/22 00:33:14;;;;;;;4.70;1.50;;;3.20;99.90;;;;;;5050178;28;20450;-83
2022/02/22 00:35:40;;;;;;;5.33;1.87;;;3.10;99.90;;;;;;5050912;28;20031;-83
2022/02/22 00:38:06;;;;;;;7.77;1.83;;;3.00;99.90;;;;;;5053894;28;20123;-83
2022/02/22 00:40:31;;;;;;;4.63;1.73;;;3.00;99.90;;;;;;5054238;28;20045;-83
2022/02/22 00:42:57;;;;;;;4.87;1.40;;;3.00;99.90;;;;;;5053706;28;20068;-83
2022/02/22 00:45:23;;;;;;;6.37;2.20;;;3.00;99.90;;;;;;5050603;28;20045;-82
2022/02/22 00:47:48;;;;;;;4.57;1.97;;;3.10;99.90;;;;;;5044354;28;20025;-83
2022/02/22 00:50:14;;;;;;;4.67;2.00;;;3.00;99.90;;;;;;5053504;28;20025;-82
2022/02/22 00:52:39;;;;;;;6.30;1.53;;;2.90;99.90;;;;;;5053528;28;20016;-83
2022/02/22 00:55:06;;;;;;;8.23;2.23;;;2.90;99.90;;;;;;5053471;28;20032;-83
2022/02/22 00:57:31;;;;;;;2.67;1.57;;;2.90;99.90;;;;;;5053354;28;20033;-83
2022/02/22 00:59:57;;;;;;;5.37;1.83;;;2.90;99.90;;;;;;5053293;28;20516;-83
2022/02/22 01:02:22;;;;;;;6.20;1.60;;;2.90;99.90;;;;;;5051726;28;20417;-83
2022/02/22 01:04:48;;;;;;;5.50;1.60;;;2.90;99.90;;;;;;5051937;28;20090;-83
2022/02/22 01:07:17;;;;;;;6.70;1.60;;;3.00;99.90;;;;;;5052010;28;20058;-82
2022/02/22 01:09:44;;;;;;;5.83;1.63;;;3.00;99.90;;;;;;5053084;28;20053;-83
2022/02/22 01:12:10;;;;;;;6.07;1.80;;;3.10;99.90;;;;;;5053510;28;20105;-83
2022/02/22 01:14:36;;;;;;;6.57;1.80;;;3.10;99.90;;;;;;5053480;28;20033;-83
2022/02/22 01:17:02;;;;;;;8.00;2.13;;;3.10;99.90;;;;;;5053853;28;20075;-82
2022/02/22 01:19:27;;;;;;;9.00;1.70;;;3.10;99.90;;;;;;5053783;28;20142;-83
2022/02/22 01:21:53;;;;;;;6.83;2.23;;;3.30;99.90;;;;;;5053935;28;20025;-83
2022/02/22 01:24:18;;;;;;;8.57;1.70;;;3.40;99.90;;;;;;5053106;28;20079;-83
2022/02/22 01:26:44;;;;;;;6.03;1.80;;;3.40;99.90;;;;;;5053341;28;20036;-83
2022/02/22 01:29:09;;;;;;;7.03;1.67;;;3.50;99.90;;;;;;5053432;28;20047;-83
2022/02/22 01:31:35;;;;;;;4.73;2.00;;;3.50;99.90;;;;;;5053500;28;20407;-83
2022/02/22 01:34:00;;;;;;;5.27;1.90;;;3.50;99.90;;;;;;5052999;28;20441;-83
2022/02/22 01:36:27;;;;;;;8.43;2.03;;;3.50;99.90;;;;;;5052470;28;20116;-83
2022/02/22 01:38:53;;;;;;;4.03;1.80;;;3.60;99.90;;;;;;5051549;28;20053;-83
2022/02/22 01:41:20;;;;;;;5.97;2.03;;;3.60;99.90;;;;;;5051511;28;20035;-83
2022/02/22 01:43:46;;;;;;;8.90;1.80;;;3.50;99.90;;;;;;5052824;28;20025;-83
2022/02/22 01:46:12;;;;;;;5.47;1.60;;;3.50;99.90;;;;;;5046397;28;20048;-83
2022/02/22 01:48:38;;;;;;;4.80;1.67;;;3.60;99.90;;;;;;5035930;28;20033;-83
2022/02/22 01:51:03;;;;;;;5.20;2.43;;;3.50;99.90;;;;;;5044847;28;20056;-83
2022/02/22 01:53:29;;;;;;;5.97;1.70;;;3.50;99.90;;;;;;5052161;28;20025;-83
2022/02/22 01:55:55;;;;;;;8.23;1.67;;;3.50;99.90;;;;;;5052601;28;20029;-83
2022/02/22 01:58:20;;;;;;;8.20;2.57;;;3.60;99.90;;;;;;5052189;28;20394;-83
2022/02/22 02:00:46;;;;;;;5.97;2.17;;;3.60;99.90;;;;;;5051260;28;20520;-83
2022/02/22 02:03:14;;;;;;;5.30;1.60;;;3.70;99.90;;;;;;5052330;28;20406;-83
2022/02/22 02:05:39;;;;;;;4.77;1.37;;;3.70;99.90;;;;;;5052964;28;20108;-83
2022/02/22 02:08:05;;;;;;;7.43;2.30;;;3.70;99.90;;;;;;5052912;28;20182;-83
2022/02/22 02:10:30;;;;;;;7.40;2.03;;;3.90;99.90;;;;;;5053459;28;20463;-83
2022/02/22 02:12:56;;;;;;;8.87;2.47;;;3.80;99.90;;;;;;5053555;28;20104;-83
2022/02/22 02:15:21;;;;;;;6.23;2.73;;;3.80;99.90;;;;;;5053492;28;20174;-83
2022/02/22 02:17:47;;;;;;;6.33;2.20;;;3.80;99.90;;;;;;5046419;28;20103;-83
2022/02/22 02:20:13;;;;;;;10.53;3.60;;;3.80;99.90;;;;;;5038466;28;20080;-83
2022/02/22 02:22:39;;;;;;;6.07;1.77;;;3.90;99.90;;;;;;5053328;28;20029;-83
2022/02/22 02:25:05;;;;;;;4.97;1.67;;;3.90;99.90;;;;;;5052066;28;20033;-83
2022/02/22 02:27:32;;;;;;;3.97;2.13;;;4.00;99.90;;;;;;5052900;28;20433;-83
2022/02/22 02:29:59;;;;;;;6.07;1.90;;;3.90;99.90;;;;;;5053006;28;20382;-83
2022/02/22 02:32:28;;;;;;;8.07;2.10;;;4.00;99.90;;;;;;5051833;28;20037;-83
2022/02/22 02:34:54;;;;;;;7.43;1.87;;;4.00;99.90;;;;;;5051983;28;20111;-83
2022/02/22 02:37:20;;;;;;;9.57;2.13;;;4.00;99.90;;;;;;5052029;28;20404;-83
2022/02/22 02:39:45;;;;;;;9.40;2.33;;;4.10;99.90;;;;;;5051935;28;20044;-83
2022/02/22 02:42:11;;;;;;;5.60;1.87;;;4.10;99.90;;;;;;5052750;28;20032;-83
2022/02/22 02:44:37;;;;;;;6.57;1.87;;;4.00;99.90;;;;;;5051554;28;20500;-83
2022/02/22 02:47:04;;;;;;;8.50;2.40;;;4.00;99.90;;;;;;5042876;28;20128;-83
2022/02/22 02:49:30;;;;;;;7.87;2.17;;;4.00;99.90;;;;;;5032157;28;20389;-82
2022/02/22 02:51:56;;;;;;;6.90;2.07;;;4.00;99.90;;;;;;5038602;28;20021;-83
2022/02/22 02:54:22;;;;;;;6.90;1.97;;;4.00;99.90;;;;;;5051603;28;20115;-83
2022/02/22 02:56:47;;;;;;;7.33;1.90;;;3.90;99.90;;;;;;5051529;28;20400;-83
2022/02/22 02:59:13;;;;;;;6.67;2.00;;;3.90;99.90;;;;;;5051142;28;20029;-83
2022/02/22 03:01:43;;;;;;;6.80;2.33;;;3.90;99.90;;;;;;5051814;28;20040;-83
2022/02/22 03:04:09;;;;;;;6.77;1.80;;;4.00;99.90;;;;;;5051725;28;20029;-83
2022/02/22 03:06:35;;;;;;;7.13;1.83;;;3.90;99.90;;;;;;5051961;28;20061;-83
2022/02/22 03:09:02;;;;;;;6.30;2.03;;;3.90;99.90;;;;;;5051543;28;20072;-83
2022/02/22 03:11:27;;;;;;;7.30;1.90;;;3.90;99.90;;;;;;5052381;28;20489;-83
2022/02/22 03:13:53;;;;;;;5.00;2.13;;;3.90;99.90;;;;;;5052038;28;20048;-82
2022/02/22 03:16:18;;;;;;;5.10;2.10;;;3.90;99.90;;;;;;5050349;28;20036;-82
2022/02/22 03:18:45;;;;;;;6.77;1.83;;;3.80;99.90;;;;;;5051927;28;20469;-82
2022/02/22 03:21:11;;;;;;;5.97;1.93;;;3.90;99.90;;;;;;5051686;28;20044;-82
2022/02/22 03:23:37;;;;;;;4.27;1.40;;;3.90;99.90;;;;;;5051430;28;20501;-82
2022/02/22 03:26:02;;;;;;;6.07;1.63;;;4.00;99.90;;;;;;5051496;28;20064;-82
2022/02/22 03:28:28;;;;;;;6.67;1.70;;;4.00;99.90;;;;;;5050598;28;20531;-83
2022/02/22 03:30:54;;;;;;;5.73;1.83;;;4.10;99.90;;;;;;5051349;28;20065;-83
2022/02/22 03:33:20;;;;;;;6.47;1.80;;;4.10;99.90;;;;;;5049467;28;20097;-82
2022/02/22 03:35:46;;;;;;;5.27;2.20;;;4.10;99.90;;;;;;5050988;28;20017;-83
2022/02/22 03:38:13;;;;;;;7.10;1.63;;;4.00;99.90;;;;;;5050511;28;20029;-83
2022/02/22 03:40:38;;;;;;;7.43;2.17;;;4.00;99.90;;;;;;5050702;28;20076;-83
2022/02/22 03:43:04;;;;;;;6.57;2.00;;;3.90;99.90;;;;;;5050327;28;20044;-82
2022/02/22 03:45:30;;;;;;;6.97;1.73;;;4.00;99.90;;;;;;5046899;28;20059;-83
2022/02/22 03:47:56;;;;;;;6.27;1.93;;;4.00;99.90;;;;;;5041987;28;20040;-82
2022/02/22 03:50:22;;;;;;;6.27;1.70;;;4.10;99.90;;;;;;5050640;28;20056;-82
2022/02/22 03:52:48;;;;;;;6.87;1.80;;;4.00;99.90;;;;;;5051005;28;20079;-83
2022/02/22 03:55:14;;;;;;;6.87;1.93;;;3.90;99.90;;;;;;5049172;28;20048;-83
2022/02/22 03:57:41;;;;;;;7.00;1.60;;;4.00;99.90;;;;;;5051334;28;20031;-82
2022/02/22 04:00:16;;;;;;;9.10;1.87;;;3.90;99.90;;;;;;5051567;28;20028;-82
2022/02/22 04:02:42;;;;;;;10.50;1.93;;;3.80;99.90;;;;;;5050283;28;20521;-83
2022/02/22 04:05:08;;;;;;;5.40;1.73;;;3.80;99.90;;;;;;5050731;28;20166;-83
2022/02/22 04:07:35;;;;;;;9.33;1.57;;;3.80;99.90;;;;;;5050697;28;20032;-83
2022/02/22 04:10:02;;;;;;;9.13;1.83;;;3.70;99.90;;;;;;5050689;28;20163;-82
2022/02/22 04:12:27;;;;;;;10.53;2.00;;;3.80;99.90;;;;;;5049538;28;20025;-82
2022/02/22 04:14:53;;;;;;;5.67;1.67;;;3.80;99.90;;;;;;5050641;28;20500;-82
2022/02/22 04:17:18;;;;;;;5.50;1.83;;;3.80;99.90;;;;;;5051275;28;20041;-83
2022/02/22 04:19:44;;;;;;;14.70;2.33;;;3.80;99.90;;;;;;5050166;28;20102;-82
2022/02/22 04:22:09;;;;;;;5.97;1.80;;;3.80;99.90;;;;;;5050625;28;20029;-83
2022/02/22 04:24:36;;;;;;;7.87;1.70;;;3.70;99.90;;;;;;5050952;28;20033;-82
2022/02/22 04:27:03;;;;;;;6.70;1.60;;;3.80;99.90;;;;;;5050563;28;20033;-82
2022/02/22 04:29:29;;;;;;;8.10;2.00;;;3.80;99.90;;;;;;5051273;28;20052;-82
2022/02/22 04:31:54;;;;;;;10.70;2.10;;;3.70;99.90;;;;;;5048986;28;20071;-82
2022/02/22 04:34:20;;;;;;;11.40;3.20;;;3.70;99.90;;;;;;5051760;28;20484;-72
2022/02/22 04:36:45;;;;;;;8.77;2.40;;;3.70;99.90;;;;;;5052685;28;20052;-72
2022/02/22 04:39:11;;;;;;;7.80;2.00;;;3.70;99.90;;;;;;5052471;28;20068;-72
2022/02/22 04:41:36;;;;;;;9.13;1.87;;;3.70;99.90;;;;;;5052599;28;20029;-73
2022/02/22 04:44:02;;;;;;;8.77;2.00;;;3.70;99.90;;;;;;5052567;28;20082;-73
2022/02/22 04:46:28;;;;;;;8.63;2.03;;;3.60;99.90;;;;;;5052671;28;20049;-73
2022/02/22 04:48:54;;;;;;;8.07;1.90;;;3.70;99.90;;;;;;5052701;28;20377;-73
2022/02/22 04:51:19;;;;;;;9.60;1.93;;;3.70;99.90;;;;;;5052298;28;20469;-73
2022/02/22 04:53:45;;;;;;;5.87;1.80;;;3.70;99.90;;;;;;5052400;28;20545;-73
2022/02/22 04:56:10;;;;;;;7.90;2.07;;;3.70;99.90;;;;;;5051287;28;20033;-73
2022/02/22 04:58:36;;;;;;;8.00;1.60;;;3.60;99.90;;;;;;5052819;28;20033;-74
2022/02/22 05:01:02;;;;;;;10.43;2.30;;;3.60;99.90;;;;;;5052258;28;20374;-73
2022/02/22 05:03:28;;;;;;;4.57;1.40;;;3.60;99.90;;;;;;5052147;28;20483;-74
2022/02/22 05:05:54;;;;;;;5.73;2.23;;;3.60;99.90;;;;;;5052927;28;20108;-73
2022/02/22 05:08:20;;;;;;;6.50;1.90;;;3.60;99.90;;;;;;5052570;28;20327;-73
2022/02/22 05:10:46;;;;;;;4.03;1.43;;;3.60;99.90;;;;;;5052282;28;20025;-73
2022/02/22 05:13:11;;;;;;;7.40;2.33;;;3.50;99.90;;;;;;5052234;28;20036;-73
2022/02/22 05:15:37;;;;;;;5.63;1.63;;;3.50;99.90;;;;;;5051990;28;20033;-73
2022/02/22 05:18:04;;;;;;;6.57;1.80;;;3.30;99.90;;;;;;5051907;28;20072;-74
2022/02/22 05:20:29;;;;;;;6.97;1.93;;;3.10;99.90;;;;;;5051864;28;20037;-73
2022/02/22 05:22:55;;;;;;;7.43;1.83;;;2.90;99.90;;;;;;5052854;28;20039;-74
2022/02/22 05:25:20;;;;;;;3.57;1.40;;;2.80;99.90;;;;;;5055429;28;20029;-73
2022/02/22 05:27:46;;;;;;;5.47;1.50;;;2.70;99.90;;;;;;5055423;28;20086;-74
2022/02/22 05:30:16;;;;;;;12.27;1.80;;;2.60;99.90;;;;;;5055397;28;20032;-74
2022/02/22 05:32:43;;;;;;;9.50;2.50;;;2.50;99.90;;;;;;5055456;28;20025;-74
2022/02/22 05:35:10;;;;;;;9.57;2.20;;;2.40;99.90;;;;;;5055418;28;20028;-73
2022/02/22 05:37:36;;;;;;;5.83;1.63;;;2.40;99.90;;;;;;5055242;28;20032;-73
2022/02/22 05:40:03;;;;;;;6.63;1.73;;;2.50;99.90;;;;;;5042561;28;20083;-73
2022/02/22 05:42:29;;;;;;;7.57;1.60;;;2.40;99.90;;;;;;5054942;28;20530;-74
2022/02/22 05:44:55;;;;;;;8.77;1.60;;;2.40;99.90;;;;;;5054797;28;20100;-74
2022/02/22 05:47:22;;;;;;;5.77;2.00;;;2.30;99.90;;;;;;5054844;28;20358;-73
2022/02/22 05:49:47;;;;;;;5.53;1.80;;;2.30;99.90;;;;;;5054906;28;20040;-73
2022/02/22 05:52:14;;;;;;;6.63;1.83;;;2.30;99.90;;;;;;5049287;28;20017;-73
2022/02/22 05:54:40;;;;;;;5.80;2.20;;;2.30;99.90;;;;;;5054758;28;20492;-74
2022/02/22 05:57:06;;;;;;;8.43;1.83;;;2.30;99.90;;;;;;5054709;28;20088;-74
2022/02/22 05:59:32;;;;;;;6.97;1.80;;;2.20;99.90;;;;;;5049203;28;20021;-73
2022/02/22 06:01:58;;;;;;;9.57;2.13;;;2.20;99.90;;;;;;5054892;28;20112;-73
2022/02/22 06:04:26;;;;;;;6.93;1.90;;;2.10;99.90;;;;;;5054859;28;20405;-73
2022/02/22 06:06:51;;;;;;;7.63;1.83;;;2.10;99.90;;;;;;5048592;28;20028;-73
2022/02/22 06:09:17;;;;;;;7.97;2.10;;;2.10;99.90;;;;;;5034854;28;20433;-73
2022/02/22 06:11:43;;;;;;;8.93;1.70;;;2.20;99.90;;;;;;5040053;28;20025;-73
2022/02/22 06:14:08;;;;;;;11.00;2.43;;;2.20;99.90;;;;;;5054841;28;20091;-73
2022/02/22 06:16:34;;;;;;;11.37;2.40;;;2.20;99.90;;;;;;5052770;28;20060;-76
2022/02/22 06:19:00;;;;;;;9.63;2.27;;;2.10;99.90;;;;;;5042183;28;20045;-76
2022/02/22 06:21:25;;;;;;;11.47;2.10;;;2.20;99.90;;;;;;5045877;28;20104;-75
2022/02/22 06:23:51;;;;;;;9.90;2.07;;;2.30;99.90;;;;;;5048964;28;20051;-76
2022/02/22 06:26:17;;;;;;;11.17;2.43;;;2.30;99.90;;;;;;5042346;28;20163;-76
2022/02/22 06:28:42;;;;;;;8.20;1.73;;;2.30;99.90;;;;;;5035551;28;20037;-76
2022/02/22 06:31:08;;;;;;;6.17;1.90;;;2.40;99.90;;;;;;5029334;28;20021;-76
2022/02/22 06:33:34;;;;;;;9.60;1.87;;;2.40;99.90;;;;;;5035647;28;20028;-76
2022/02/22 06:36:00;;;;;;;5.97;2.07;;;2.50;99.90;;;;;;5032665;28;20068;-76
2022/02/22 06:38:26;;;;;;;8.83;1.73;;;2.60;99.90;;;;;;5050702;28;20056;-76
2022/02/22 06:40:52;;;;;;;6.47;2.23;;;2.50;99.90;;;;;;5047596;28;20029;-76
2022/02/22 06:43:17;;;;;;;7.77;2.33;;;2.60;99.90;;;;;;5047240;28;20033;-75
2022/02/22 06:45:43;;;;;;;9.47;1.87;;;2.60;99.90;;;;;;5029850;28;20057;-76
2022/02/22 06:48:11;;;;;;;11.73;1.87;;;2.60;99.90;;;;;;5030554;28;20028;-76
2022/02/22 06:50:37;;;;;;;8.30;2.07;;;2.80;99.90;;;;;;5031172;28;20141;-76
2022/02/22 06:53:03;;;;;;;13.27;2.03;;;2.80;99.90;;;;;;5047255;28;20539;-76
2022/02/22 06:55:29;;;;;;;9.90;2.23;;;2.80;99.90;;;;;;5045176;28;20384;-76
2022/02/22 06:58:03;;;;;;;9.07;1.90;;;2.80;99.90;;;;;;5045091;28;20029;-76
2022/02/22 07:00:30;;;;;;;9.13;2.00;;;2.80;99.90;;;;;;5047189;28;20103;-65
2022/02/22 07:02:55;;;;;;;10.53;2.17;;;2.90;99.90;;;;;;5040207;28;20120;-65
2022/02/22 07:05:21;;;;;;;7.50;1.80;;;3.00;99.90;;;;;;5025875;28;20057;-65
2022/02/22 07:07:47;;;;;;;5.03;2.20;;;3.00;99.90;;;;;;5026818;28;20037;-76
2022/02/22 07:10:13;;;;;;;7.30;1.90;;;3.10;99.90;;;;;;5029086;28;20033;-76
2022/02/22 07:12:38;;;;;;;7.07;2.00;;;3.20;99.90;;;;;;5046793;28;20095;-75
2022/02/22 07:15:05;;;;;;;6.40;1.80;;;3.20;99.90;;;;;;5044592;28;20040;-75
2022/02/22 07:17:30;;;;;;;5.33;1.80;;;3.20;99.90;;;;;;5046331;28;20043;-74
2022/02/22 07:19:56;;;;;;;8.20;2.83;;;3.40;99.90;;;;;;5045930;28;20033;-75
2022/02/22 07:22:22;;;;;;;10.33;1.80;;;3.50;99.90;;;;;;5045226;28;20086;-75
2022/02/22 07:24:49;;;;;;;10.17;2.10;;;3.50;99.90;;;;;;5046027;28;20112;-75
2022/02/22 07:27:15;;;;;;;9.77;2.70;;;3.60;99.90;;;;;;5046254;28;20033;-75
2022/02/22 07:29:41;;;;;;;8.73;1.77;;;3.60;99.90;;;;;;5046848;28;20035;-75
2022/02/22 07:32:07;;;;;;;7.97;1.90;;;3.60;99.90;;;;;;5049175;28;20112;-75
2022/02/22 07:34:33;;;;;;;10.87;2.23;;;3.70;99.90;;;;;;5049478;28;20116;-74
2022/02/22 07:37:00;;;;;;;7.60;2.03;;;3.70;99.90;;;;;;5050283;28;20037;-75
2022/02/22 07:39:26;;;;;;;5.57;1.80;;;3.80;99.90;;;;;;5048820;28;20025;-74
2022/02/22 07:41:52;;;;;;;7.57;2.43;;;3.80;99.90;;;;;;5050274;28;20029;-74
2022/02/22 07:44:18;;;;;;;8.23;2.23;;;4.00;99.90;;;;;;5050067;28;20036;-74
2022/02/22 07:46:43;;;;;;;7.13;2.07;;;4.00;99.90;;;;;;5042437;28;20037;-74
2022/02/22 07:49:10;;;;;;;8.83;2.20;;;4.20;99.90;;;;;;5030100;28;20030;-74
2022/02/22 07:51:35;;;;;;;6.57;1.87;;;4.30;99.90;;;;;;5049565;28;20036;-74
2022/02/22 07:54:01;;;;;;;6.17;1.90;;;4.30;99.90;;;;;;5047527;28;20028;-74
2022/02/22 07:56:26;;;;;;;8.57;2.43;;;4.30;99.90;;;;;;5042525;28;20025;-74
2022/02/22 07:58:53;;;;;;;11.13;2.70;;;4.30;99.90;;;;;;5048451;28;20021;-74
2022/02/22 08:01:19;;;;;;;8.63;1.93;;;4.30;99.90;;;;;;5048731;28;20036;-81
2022/02/22 08:03:45;;;;;;;7.97;2.03;;;4.20;99.90;;;;;;5048913;28;20033;-81
2022/02/22 08:06:12;;;;;;;6.23;2.20;;;4.20;99.90;;;;;;5047303;28;20025;-80
2022/02/22 08:08:40;;;;;;;7.53;2.20;;;4.30;99.90;;;;;;5047456;28;20033;-81
2022/02/22 08:11:06;;;;;;;7.57;2.30;;;4.40;99.90;;;;;;5045535;28;20029;-81
2022/02/22 08:13:31;;;;;;;9.00;2.30;;;4.50;99.90;;;;;;5045451;28;20032;-81
2022/02/22 08:15:57;;;;;;;8.17;2.03;;;4.60;99.90;;;;;;5047900;28;20032;-81
2022/02/22 08:18:23;;;;;;;6.27;1.83;;;4.70;99.90;;;;;;5047660;28;20025;-81
2022/02/22 08:20:48;;;;;;;7.77;2.30;;;4.80;99.90;;;;;;5048705;28;20032;-81
2022/02/22 08:23:14;;;;;;;8.40;2.00;;;4.80;99.90;;;;;;5048484;28;20021;-81
2022/02/22 08:25:39;;;;;;;12.27;2.30;;;4.70;99.90;;;;;;5045548;28;20489;-81
2022/02/22 08:28:10;;;;;;;5.83;2.23;;;4.60;99.90;;;;;;5047223;28;20171;-81
2022/02/22 08:30:38;;;;;;;6.67;1.63;;;4.50;99.90;;;;;;5048210;28;20272;-81
2022/02/22 08:33:05;;;;;;;7.33;2.37;;;4.50;99.90;;;;;;5048238;28;20122;-81
2022/02/22 08:35:30;;;;;;;10.47;2.20;;;4.70;99.90;;;;;;5047495;28;20033;-81
2022/02/22 08:37:56;;;;;;;11.83;2.00;;;4.80;99.90;;;;;;5048451;28;20852;-82
2022/02/22 08:40:21;;;;;;;9.43;2.60;;;5.10;99.90;;;;;;5044569;28;20506;-81
2022/02/22 08:42:47;;;;;;;10.13;2.33;;;5.10;99.90;;;;;;5044765;28;20041;-81
2022/02/22 08:45:13;;;;;;;6.23;1.90;;;5.40;99.90;;;;;;5041926;28;21516;-81
2022/02/22 08:47:38;;;;;;;7.10;1.77;;;5.50;99.90;;;;;;5043488;28;20033;-82
2022/02/22 08:50:04;;;;;;;9.13;1.67;;;5.50;99.90;;;;;;5042826;28;20035;-81
2022/02/22 08:52:31;;;;;;;6.67;2.13;;;5.50;99.90;;;;;;5043701;28;20025;-81
2022/02/22 08:54:57;;;;;;;7.73;2.03;;;5.50;99.90;;;;;;5043615;28;20074;-81
2022/02/22 08:57:22;;;;;;;12.23;2.30;;;5.50;99.90;;;;;;5043663;28;20778;-81
2022/02/22 08:59:48;;;;;;;6.50;1.90;;;5.50;99.90;;;;;;5047459;28;20018;-81
2022/02/22 09:02:14;;;;;;;7.73;1.97;;;5.20;99.90;;;;;;5046578;28;20470;-81
2022/02/22 09:04:39;;;;;;;6.40;1.87;;;4.70;99.90;;;;;;5046361;28;20025;-81
2022/02/22 09:07:05;;;;;;;5.33;1.67;;;4.40;99.90;;;;;;5047294;28;20028;-81
2022/02/22 09:09:31;;;;;;;5.87;1.93;;;4.10;99.90;;;;;;5046931;28;20603;-81
2022/02/22 09:11:57;;;;;;;11.27;2.00;;;3.90;99.90;;;;;;5046231;28;20029;-82
2022/02/22 09:14:23;;;;;;;7.73;2.03;;;4.00;99.90;;;;;;5046867;28;20049;-82
2022/02/22 09:16:49;;;;;;;5.87;2.00;;;4.00;99.90;;;;;;5046711;28;20061;-82
2022/02/22 09:19:14;;;;;;;8.50;2.40;;;4.10;99.90;;;;;;5047149;28;20040;-81
2022/02/22 09:21:40;;;;;;;7.07;2.03;;;4.00;99.90;;;;;;5047344;28;20064;-80
2022/02/22 09:24:05;;;;;;;9.30;2.23;;;4.00;99.90;;;;;;5046149;28;20040;-81
2022/02/22 09:26:31;;;;;;;7.93;2.90;;;3.90;99.90;;;;;;5046066;28;20029;-82
2022/02/22 09:28:58;;;;;;;10.20;2.53;;;3.90;99.90;;;;;;5046668;28;20484;-82
2022/02/22 09:31:25;;;;;;;6.43;2.03;;;4.30;99.90;;;;;;5047329;28;20142;-82
2022/02/22 09:33:51;;;;;;;6.57;2.20;;;4.60;99.90;;;;;;5046052;28;20047;-82
2022/02/22 09:36:17;;;;;;;10.50;2.07;;;4.90;99.90;;;;;;5046447;28;20481;-82
2022/02/22 09:38:43;;;;;;;5.57;1.83;;;5.10;99.90;;;;;;5046944;28;20041;-82
2022/02/22 09:41:10;;;;;;;7.67;1.90;;;5.40;99.90;;;;;;5047074;28;20052;-82
2022/02/22 09:43:36;;;;;;;10.20;2.33;;;5.20;99.90;;;;;;5046796;28;20033;-82
2022/02/22 09:46:04;;;;;;;12.33;2.43;;;5.10;99.90;;;;;;5043917;28;20445;-81
2022/02/22 09:48:30;;;;;;;9.23;2.97;;;5.10;99.90;;;;;;5046577;28;20128;-81
2022/02/22 09:50:56;;;;;;;9.80;2.63;;;5.20;99.90;;;;;;5044387;28;20124;-81
2022/02/22 09:53:21;;;;;;;12.37;2.57;;;5.30;99.90;;;;;;5046625;28;20021;-81
2022/02/22 09:55:47;;;;;;;9.87;2.77;;;5.40;99.90;;;;;;5045121;28;20029;-82
2022/02/22 09:58:13;;;;;;;9.37;1.97;;;5.40;99.90;;;;;;5045020;28;21306;-81
2022/02/22 10:00:38;;;;;;;9.87;2.60;;;5.90;99.90;;;;;;5046477;28;20091;-81
2022/02/22 10:03:16;;;;;;;9.43;2.30;;;6.20;99.90;;;;;;5046095;28;20067;-82
2022/02/22 10:05:52;;;;;;;10.47;2.20;;;6.50;99.90;;;;;;5045518;28;20071;-82
2022/02/22 10:08:24;;;;;;;9.43;2.30;;;6.80;99.90;;;;;;5045435;28;20394;-82
2022/02/22 10:11:01;;;;;;;8.57;2.30;;;6.80;99.90;;;;;;5046427;28;20120;-82
2022/02/22 10:13:27;;;;;;;12.47;2.17;;;6.70;99.90;;;;;;5045300;28;20029;-82
2022/02/22 10:15:53;;;;;;;8.53;2.30;;;6.50;99.90;;;;;;5043056;28;20108;-82
2022/02/22 10:18:19;;;;;;;12.33;2.57;;;6.50;99.90;;;;;;5041033;28;20035;-82
2022/02/22 10:20:47;;;;;;;12.07;2.50;;;6.50;99.90;;;;;;5043264;28;20033;-81
2022/02/22 10:23:13;;;;;;;8.03;2.07;;;6.40;99.90;;;;;;5045089;28;20040;-82
2022/02/22 10:25:39;;;;;;;8.73;2.17;;;6.40;99.90;;;;;;5045191;28;20028;-82
2022/02/22 10:28:05;;;;;;;6.47;1.97;;;6.30;99.90;;;;;;5045183;28;20034;-82
2022/02/22 10:30:43;;;;;;;6.80;2.10;;;6.30;99.90;;;;;;5046399;28;20520;-82
2022/02/22 10:33:12;;;;;;;10.53;2.47;;;6.60;99.90;;;;;;5046164;28;20017;-82
2022/02/22 10:35:39;;;;;;;7.13;2.10;;;6.90;99.90;;;;;;5045045;28;20029;-82
2022/02/22 10:38:26;;;;;;;7.00;1.73;;;7.20;99.90;;;;;;5045355;28;20167;-82
2022/02/22 10:40:56;;;;;;;7.57;1.80;;;7.30;99.90;;;;;;5045876;28;20031;-82
2022/02/22 10:43:33;;;;;;;8.93;2.37;;;7.10;99.90;;;;;;5044093;28;20497;-81
2022/02/22 10:46:02;;;;;;;6.87;2.17;;;7.00;99.90;;;;;;5041116;28;20548;-81
2022/02/22 10:48:41;;;;;;;6.77;1.93;;;7.00;99.90;;;;;;5045404;28;20359;-81
2022/02/22 10:51:15;;;;;;;7.37;1.97;;;7.00;99.90;;;;;;5032830;28;20052;-81
2022/02/22 10:53:42;;;;;;;6.87;2.30;;;6.90;99.90;;;;;;5031055;28;20099;-81
2022/02/22 10:56:10;;;;;;;7.10;1.90;;;6.80;99.90;;;;;;5034283;28;20026;-81
2022/02/22 10:58:39;;;;;;;4.77;1.77;;;6.90;99.90;;;;;;5032371;28;20493;-82
2022/02/22 11:01:09;;;;;;;8.20;1.63;;;6.80;99.90;;;;;;5047718;28;20490;-81
2022/02/22 11:03:35;;;;;;;7.87;1.90;;;6.70;99.90;;;;;;5047193;28;20033;-82
2022/02/22 11:06:01;;;;;;;8.53;2.27;;;6.60;99.90;;;;;;5046635;28;20039;-82
2022/02/22 11:08:31;;;;;;;6.57;1.97;;;6.70;99.90;;;;;;5047077;28;20017;-80
2022/02/22 11:11:32;;;;;;;8.73;2.23;;;6.70;99.90;;;;;;5045146;28;20044;-81
2022/02/22 11:14:02;;;;;;;5.93;2.17;;;6.70;99.90;;;;;;5046746;28;20420;-81
2022/02/22 11:16:48;;;;;;;5.23;1.70;;;7.10;99.90;;;;;;5046848;28;20029;-81
2022/02/22 11:19:22;;;;;;;5.23;1.87;;;7.60;99.90;;;;;;5045928;28;20025;-81
2022/02/22 11:21:56;;;;;;;4.93;1.50;;;7.80;99.90;;;;;;5046933;28;20043;-82
2022/02/22 11:24:22;;;;;;;8.60;1.70;;;7.80;99.90;;;;;;5050756;28;20036;-82
2022/02/22 11:26:57;;;;;;;4.43;1.73;;;8.00;99.90;;;;;;5051412;28;20036;-64
2022/02/22 11:29:25;;;;;;;5.53;1.70;;;8.00;99.90;;;;;;5050651;28;20078;-81
2022/02/22 11:31:57;;;;;;;3.40;1.47;;;7.90;99.90;;;;;;5050567;28;20048;-81
2022/02/22 11:34:32;;;;;;;7.37;1.70;;;7.70;99.90;;;;;;5050177;28;20127;-81
2022/02/22 11:37:01;;;;;;;5.50;1.50;;;7.80;99.90;;;;;;5051287;28;20029;-80
2022/02/22 11:39:26;;;;;;;2.93;1.33;;;7.60;99.90;;;;;;5050640;28;20025;-81
2022/02/22 11:41:52;;;;;;;5.00;1.77;;;7.70;99.90;;;;;;5050626;28;20031;-81
2022/02/22 11:44:22;;;;;;;8.70;2.00;;;7.80;99.90;;;;;;5050421;28;20112;-81
2022/02/22 11:46:54;;;;;;;4.70;1.80;;;7.90;99.90;;;;;;5047916;28;20059;-81
2022/02/22 11:49:27;;;;;;;4.63;1.53;;;8.00;99.90;;;;;;5049595;28;20381;-81
2022/02/22 11:52:09;;;;;;;4.40;1.50;;;8.00;99.90;;;;;;5049977;28;20140;-81
2022/02/22 11:54:35;;;;;;;6.40;1.50;;;8.10;99.90;;;;;;5050355;28;20671;-80
2022/02/22 11:57:04;;;;;;;6.43;1.50;;;8.10;99.90;;;;;;5047522;28;20840;-80
2022/02/22 11:59:33;;;;;;;6.53;1.67;;;7.80;99.90;;;;;;5044144;28;20063;-80
2022/02/22 12:02:00;;;;;;;4.80;1.60;;;7.50;99.90;;;;;;5045301;28;20493;-80
2022/02/22 12:04:28;;;;;;;4.37;1.60;;;7.20;99.90;;;;;;5051208;28;20036;-86
2022/02/22 12:06:59;;;;;;;6.30;1.70;;;7.10;99.90;;;;;;5050590;28;20040;-85
2022/02/22 12:09:39;;;;;;;6.50;1.67;;;7.30;99.90;;;;;;5045899;28;20386;-86
2022/02/22 12:12:07;;;;;;;6.67;1.90;;;7.40;99.90;;;;;;5047907;28;20025;-86
2022/02/22 12:14:34;;;;;;;10.50;2.30;;;7.60;99.90;;;;;;5049133;28;20379;-85
2022/02/22 12:17:02;;;;;;;4.27;1.73;;;8.10;99.90;;;;;;5045742;28;20483;-86
2022/02/22 12:19:28;;;;;;;7.57;2.53;;;8.30;99.90;;;;;;5048013;28;20068;-86
2022/02/22 12:21:54;;;;;;;9.43;2.57;;;8.40;99.90;;;;;;5047879;28;21412;-87
2022/02/22 12:24:23;;;;;;;7.13;2.27;;;8.80;99.90;;;;;;5048526;28;20584;-85
2022/02/22 12:26:49;;;;;;;5.10;2.10;;;8.90;99.90;;;;;;5048757;28;20594;-86
2022/02/22 12:29:15;;;;;;;6.73;1.90;;;9.20;99.90;;;;;;5042553;28;20060;-86
2022/02/22 12:31:43;;;;;;;5.13;1.97;;;9.40;99.90;;;;;;5048290;28;20122;-85
2022/02/22 12:34:11;;;;;;;8.65;2.33;;;9.60;99.90;;;;;;5052317;28;20167;-85
2022/02/22 12:36:39;;;;;;;5.33;2.33;;;9.80;99.90;;;;;;5049745;28;20037;-85
2022/02/22 12:39:10;;;;;;;7.17;1.67;;;9.80;99.90;;;;;;5049801;28;20033;-85
2022/02/22 12:41:38;;;;;;;6.13;1.80;;;9.50;99.90;;;;;;5051075;28;20036;-85
2022/02/22 12:44:12;;;;;;;8.93;2.47;;;9.70;99.90;;;;;;5049470;28;20044;-85
2022/02/22 12:46:39;;;;;;;5.40;1.97;;;9.70;99.90;;;;;;5049099;28;20061;-85
2022/02/22 12:49:07;;;;;;;6.50;1.73;;;9.70;99.90;;;;;;5049613;28;20090;-85
2022/02/22 12:51:34;;;;;;;7.13;1.90;;;9.80;99.90;;;;;;5053507;28;20527;-85
2022/02/22 12:54:01;;;;;;;6.50;2.00;;;9.90;99.90;;;;;;5052982;28;20488;-85